createdAt,value
2023-02-25T00:02:13.475Z,2.57
2023-02-25T00:07:15.962Z,2.80
2023-02-25T00:12:17.989Z,3.33
2023-02-25T00:17:20.081Z,3.23
2023-02-25T00:22:22.186Z,3.20
2023-02-25T00:27:25.673Z,3.33
2023-02-25T00:32:28.171Z,3.20
2023-02-25T00:37:30.981Z,3.43
2023-02-25T00:42:33.268Z,3.20
2023-02-25T00:47:35.941Z,3.47
2023-02-25T00:52:38.560Z,3.50
2023-02-25T00:57:40.746Z,3.63
2023-02-25T01:02:45.656Z,3.53
2023-02-25T01:07:47.828Z,3.50
2023-02-25T01:12:49.965Z,3.10
2023-02-25T01:17:52.009Z,3.30
2023-02-25T01:22:54.039Z,2.60
2023-02-25T01:27:58.405Z,2.37
2023-02-25T01:33:01.599Z,2.30
2023-02-25T01:38:03.947Z,2.67
2023-02-25T01:43:07.948Z,2.73
2023-02-25T01:48:19.062Z,2.37
2023-02-25T01:53:33.414Z,2.13
2023-02-25T01:58:35.773Z,2.10
2023-02-25T02:03:39.784Z,2.17
2023-02-25T02:08:45.665Z,1.80
2023-02-25T02:13:56.535Z,2.07
2023-02-25T02:19:21.630Z,2.00
2023-02-25T02:25:03.406Z,2.20
2023-02-25T02:30:30.214Z,2.10
2023-02-25T02:36:02.038Z,2.30
2023-02-25T02:41:35.459Z,2.20
2023-02-25T02:46:47.743Z,2.20
2023-02-25T02:52:25.898Z,2.17
2023-02-25T02:57:33.069Z,2.40
2023-02-25T03:02:38.908Z,2.20
2023-02-25T03:07:51.362Z,2.30
2023-02-25T03:12:54.893Z,1.73
2023-02-25T03:18:07.028Z,2.27
2023-02-25T03:23:17.165Z,1.73
2023-02-25T03:28:33.948Z,2.07
2023-02-25T03:34:06.232Z,1.90
2023-02-25T03:39:20.951Z,2.00
2023-02-25T03:44:31.702Z,1.53
2023-02-25T03:49:59.705Z,1.90
2023-02-25T03:55:03.133Z,1.20
2023-02-25T04:00:17.811Z,1.23
2023-02-25T04:05:22.802Z,1.30
2023-02-25T04:10:26.498Z,1.30
2023-02-25T04:15:29.461Z,1.20
2023-02-25T04:20:32.202Z,1.10
2023-02-25T04:25:35.025Z,1.30
2023-02-25T04:30:37.620Z,1.20
2023-02-25T04:35:39.788Z,1.40
2023-02-25T04:40:41.972Z,1.20
2023-02-25T04:45:44.245Z,1.10
2023-02-25T04:50:46.508Z,1.20
2023-02-25T04:55:49.145Z,1.10
2023-02-25T05:00:51.150Z,1.20
2023-02-25T05:05:53.166Z,1.27
2023-02-25T05:10:55.278Z,1.30
2023-02-25T05:16:06.849Z,1.30
2023-02-25T05:21:16.676Z,1.20
2023-02-25T05:26:22.171Z,1.10
2023-02-25T05:31:25.259Z,1.10
2023-02-25T05:36:28.751Z,1.13
2023-02-25T05:41:31.420Z,1.33
2023-02-25T05:46:33.921Z,0.90
2023-02-25T05:51:36.068Z,0.67
2023-02-25T05:56:38.054Z,0.80
2023-02-25T06:01:41.928Z,0.90
2023-02-25T06:06:50.325Z,0.70
2023-02-25T06:11:52.412Z,1.00
2023-02-25T06:16:57.520Z,0.77
2023-02-25T06:21:59.603Z,0.80
2023-02-25T06:27:01.662Z,0.70
2023-02-25T06:32:03.963Z,1.10
2023-02-25T06:37:07.190Z,0.80
2023-02-25T06:42:10.646Z,0.73
2023-02-25T06:47:12.826Z,1.00
2023-02-25T06:52:15.619Z,1.10
2023-02-25T06:57:17.905Z,1.10
2023-02-25T07:02:20.424Z,1.37
2023-02-25T07:07:23.256Z,0.90
2023-02-25T07:12:25.315Z,0.80
2023-02-25T07:17:27.418Z,1.00
2023-02-25T07:22:29.482Z,0.97
2023-02-25T07:27:31.680Z,0.80
2023-02-25T07:32:33.827Z,0.80
2023-02-25T07:37:35.965Z,1.20
2023-02-25T07:42:37.952Z,1.00
2023-02-25T07:47:41.274Z,1.10
2023-02-25T07:52:43.592Z,0.90
2023-02-25T07:57:45.971Z,1.10
2023-02-25T08:02:48.131Z,0.50
2023-02-25T08:07:51.174Z,0.80
2023-02-25T08:12:53.437Z,0.90
2023-02-25T08:17:55.979Z,1.10
2023-02-25T08:22:59.168Z,0.90
2023-02-25T08:28:01.874Z,1.03
2023-02-25T08:33:04.608Z,1.00
2023-02-25T08:38:06.956Z,0.90
2023-02-25T08:43:10.402Z,1.00
2023-02-25T08:48:13.765Z,1.40
2023-02-25T08:53:16.219Z,1.67
2023-02-25T08:58:18.309Z,1.10
2023-02-25T09:03:20.412Z,0.83
2023-02-25T09:08:22.789Z,1.17
2023-02-25T09:13:24.949Z,1.60
2023-02-25T09:18:27.354Z,0.90
2023-02-25T09:23:29.608Z,1.03
2023-02-25T09:28:31.695Z,1.23
2023-02-25T09:33:36.218Z,0.97
2023-02-25T09:38:41.423Z,0.90
2023-02-25T09:43:44.456Z,1.00
2023-02-25T09:49:38.828Z,0.23
2023-02-25T09:54:47.665Z,0.90
2023-02-25T09:59:53.687Z,0.40
2023-02-25T10:05:30.448Z,0.67
2023-02-25T10:10:58.870Z,0.50
2023-02-25T10:16:16.081Z,0.63
2023-02-25T10:21:41.662Z,0.60
2023-02-25T10:26:50.944Z,0.60
2023-02-25T10:32:00.098Z,0.90
2023-02-25T10:37:05.754Z,1.17
2023-02-25T10:42:09.998Z,0.97
2023-02-25T10:47:18.185Z,0.83
2023-02-25T10:52:21.155Z,0.90
2023-02-25T10:57:27.839Z,0.60
2023-02-25T11:02:36.348Z,0.80
2023-02-25T11:07:38.718Z,0.70
2023-02-25T11:12:47.892Z,0.47
2023-02-25T11:17:50.438Z,0.60
2023-02-25T11:22:55.238Z,0.50
2023-02-25T11:27:58.874Z,0.90
2023-02-25T11:33:16.449Z,0.90
2023-02-25T11:38:33.927Z,0.70
2023-02-25T11:43:45.421Z,0.70
2023-02-25T11:48:53.236Z,0.73
2023-02-25T11:54:19.925Z,0.70
2023-02-25T11:59:43.134Z,0.73
2023-02-25T12:05:16.917Z,0.87
2023-02-25T12:11:02.586Z,0.90
2023-02-25T12:16:54.284Z,1.10
2023-02-25T12:22:36.717Z,1.00
2023-02-25T12:28:19.894Z,0.87
2023-02-25T12:34:08.067Z,0.90
2023-02-25T12:39:38.344Z,1.10
2023-02-25T12:45:29.441Z,1.20
2023-02-25T12:51:22.113Z,0.73
2023-02-25T12:56:53.524Z,1.40
2023-02-25T13:02:16.309Z,2.10
2023-02-25T13:07:42.590Z,2.13
2023-02-25T13:13:18.516Z,1.90
2023-02-25T13:18:50.870Z,1.30
2023-02-25T13:24:33.274Z,1.30
2023-02-25T13:29:59.880Z,1.63
2023-02-25T13:35:51.899Z,1.40
2023-02-25T13:41:18.860Z,1.13
2023-02-25T13:46:48.481Z,1.33
2023-02-25T13:52:36.560Z,1.20
2023-02-25T13:58:16.519Z,1.30
2023-02-25T14:03:52.934Z,1.13
2023-02-25T14:09:26.146Z,1.20
2023-02-25T14:14:40.393Z,1.00
2023-02-25T14:19:51.442Z,1.20
2023-02-25T14:25:05.642Z,1.27
2023-02-25T14:30:30.502Z,1.17
2023-02-25T14:35:35.362Z,1.27
2023-02-25T14:40:48.510Z,1.40
2023-02-25T14:46:30.681Z,1.20
2023-02-25T14:52:19.515Z,1.50
2023-02-25T14:58:06.310Z,2.00
2023-02-25T15:03:58.039Z,1.93
2023-02-25T15:09:28.802Z,1.60
2023-02-25T15:15:09.213Z,2.00
2023-02-25T15:20:33.252Z,1.03
2023-02-25T15:26:06.833Z,1.70
2023-02-25T15:31:28.640Z,1.70
2023-02-25T15:36:45.220Z,1.93
2023-02-25T15:42:03.230Z,1.63
2023-02-25T15:47:22.323Z,1.30
2023-02-25T15:52:52.937Z,1.40
2023-02-25T15:57:55.418Z,2.03
2023-02-25T16:03:03.671Z,1.53
2023-02-25T16:08:56.074Z,1.80
2023-02-25T16:14:00.613Z,1.83
2023-02-25T16:19:07.006Z,1.50
2023-02-25T16:24:14.056Z,1.80
2023-02-25T16:29:46.300Z,1.73
2023-02-25T16:34:51.754Z,1.43
2023-02-25T16:39:54.538Z,1.80
2023-02-25T16:45:01.967Z,1.63
2023-02-25T16:50:16.035Z,2.07
2023-02-25T16:55:30.335Z,1.70
2023-02-25T17:00:34.478Z,1.77
2023-02-25T17:05:38.349Z,1.27
2023-02-25T17:10:56.152Z,1.43
2023-02-25T17:16:00.817Z,1.50
2023-02-25T17:21:26.228Z,1.63
2023-02-25T17:26:31.557Z,1.43
2023-02-25T17:31:54.092Z,1.60
2023-02-25T17:37:00.669Z,1.73
2023-02-25T17:42:03.226Z,1.63
2023-02-25T17:47:09.637Z,1.27
2023-02-25T17:52:26.234Z,1.57
2023-02-25T17:57:31.677Z,1.60
2023-02-25T18:02:36.561Z,1.63
2023-02-25T18:07:42.260Z,1.23
2023-02-25T18:12:48.715Z,1.80
2023-02-25T18:18:03.506Z,1.33
2023-02-25T18:23:21.733Z,1.63
2023-02-25T18:28:24.079Z,1.40
2023-02-25T18:33:26.167Z,1.07
2023-02-25T18:38:31.685Z,1.03
2023-02-25T18:43:38.989Z,1.10
2023-02-25T18:48:40.998Z,1.20
2023-02-25T18:53:43.494Z,1.23
2023-02-25T18:58:46.145Z,1.73
2023-02-25T19:03:48.586Z,1.90
2023-02-25T19:08:50.591Z,1.80
2023-02-25T19:13:53.600Z,2.03
2023-02-25T19:18:56.210Z,1.80
2023-02-25T19:23:58.264Z,1.60
2023-02-25T19:29:00.732Z,1.70
2023-02-25T19:34:03.205Z,1.60
2023-02-25T19:39:06.301Z,1.77
2023-02-25T19:44:09.410Z,1.50
2023-02-25T19:49:11.470Z,1.77
2023-02-25T19:54:13.538Z,1.57
2023-02-25T19:59:16.231Z,1.60
2023-02-25T20:04:18.490Z,1.70
2023-02-25T20:09:20.805Z,1.70
2023-02-25T20:14:28.075Z,1.70
2023-02-25T20:19:32.918Z,1.90
2023-02-25T20:24:35.359Z,1.70
2023-02-25T20:29:37.429Z,1.87
2023-02-25T20:34:39.716Z,2.03
2023-02-25T20:39:55.188Z,1.60
2023-02-25T20:44:59.055Z,1.70
2023-02-25T20:50:02.211Z,1.73
2023-02-25T20:55:06.831Z,2.03
2023-02-25T21:00:13.347Z,1.70
2023-02-25T21:05:16.640Z,1.90
2023-02-25T21:10:19.036Z,1.70
2023-02-25T21:15:21.035Z,1.70
2023-02-25T21:20:23.159Z,2.53
2023-02-25T21:25:25.710Z,1.80
2023-02-25T21:30:28.202Z,1.70
2023-02-25T21:35:30.340Z,1.90
2023-02-25T21:40:33.672Z,1.70
2023-02-25T21:45:35.786Z,1.40
2023-02-25T21:50:37.787Z,1.47
2023-02-25T21:55:39.956Z,1.50
2023-02-25T22:00:42.792Z,1.23
2023-02-25T22:05:46.967Z,1.23
2023-02-25T22:10:49.114Z,1.33
2023-02-25T22:15:51.514Z,1.40
2023-02-25T22:20:54.481Z,1.43
2023-02-25T22:26:01.205Z,1.30
2023-02-25T22:31:05.036Z,1.20
2023-02-25T22:36:08.226Z,1.40
2023-02-25T22:41:15.772Z,1.50
2023-02-25T22:46:24.042Z,1.60
2023-02-25T22:51:35.451Z,1.37
2023-02-25T22:56:37.810Z,1.40
2023-02-25T23:01:41.232Z,1.50
2023-02-25T23:06:45.303Z,1.47
2023-02-25T23:11:47.636Z,1.53
2023-02-25T23:16:49.619Z,1.40
2023-02-25T23:21:51.670Z,1.30
2023-02-25T23:26:54.363Z,1.53
2023-02-25T23:31:56.578Z,1.50
2023-02-25T23:36:58.743Z,1.30
2023-02-25T23:42:00.801Z,2.07
2023-02-25T23:47:03.008Z,1.40
2023-02-25T23:52:05.076Z,1.53
2023-02-25T23:57:07.231Z,1.57
